createdAt,value
2018-05-08T00:02:07.613Z,55.50
2018-05-08T00:04:36.451Z,56.60
2018-05-08T00:07:04.495Z,56.60
2018-05-08T00:09:32.553Z,56.30
2018-05-08T00:12:00.673Z,56.40
2018-05-08T00:14:28.737Z,57.10
2018-05-08T00:16:56.776Z,56.80
2018-05-08T00:19:24.845Z,56.90
2018-05-08T00:21:52.909Z,57.50
2018-05-08T00:24:20.946Z,57.70
2018-05-08T00:26:50.180Z,57.40
2018-05-08T00:29:19.012Z,58.30
2018-05-08T00:31:47.035Z,57.70
2018-05-08T00:34:15.086Z,57.50
2018-05-08T00:36:43.122Z,57.40
2018-05-08T00:39:11.248Z,58.00
2018-05-08T00:41:39.298Z,58.60
2018-05-08T00:44:07.350Z,59.20
2018-05-08T00:46:35.406Z,58.80
2018-05-08T00:49:03.492Z,59.00
2018-05-08T00:51:31.534Z,58.80
2018-05-08T00:53:59.572Z,58.40
2018-05-08T00:56:28.396Z,59.30
2018-05-08T00:58:56.435Z,58.60
2018-05-08T01:01:25.250Z,58.90
2018-05-08T01:03:54.050Z,58.40
2018-05-08T01:06:22.882Z,58.30
2018-05-08T01:08:51.723Z,58.80
2018-05-08T01:11:19.765Z,58.40
2018-05-08T01:13:47.825Z,58.40
2018-05-08T01:16:16.626Z,59.00
2018-05-08T01:18:44.683Z,58.80
2018-05-08T01:21:13.507Z,59.50
2018-05-08T01:23:42.680Z,59.60
2018-05-08T01:26:11.518Z,59.40
2018-05-08T01:28:39.561Z,59.70
2018-05-08T01:31:07.621Z,59.70
2018-05-08T01:33:35.668Z,59.90
2018-05-08T01:36:04.519Z,60.90
2018-05-08T01:38:32.549Z,60.00
2018-05-08T01:41:00.586Z,60.20
2018-05-08T01:43:28.652Z,60.30
2018-05-08T01:45:56.714Z,60.30
2018-05-08T01:48:25.533Z,60.40
2018-05-08T01:50:54.353Z,61.10
2018-05-08T01:55:52.220Z,60.80
2018-05-08T01:58:20.232Z,61.00
2018-05-08T02:00:48.298Z,61.20
2018-05-08T02:03:16.346Z,61.70
2018-05-08T02:05:44.422Z,62.00
2018-05-08T02:08:12.499Z,62.40
2018-05-08T02:10:40.566Z,62.90
2018-05-08T02:13:08.610Z,63.00
2018-05-08T02:15:37.453Z,64.20
2018-05-08T02:18:05.491Z,63.80
2018-05-08T02:20:33.649Z,63.90
2018-05-08T02:23:01.720Z,64.10
2018-05-08T02:25:30.589Z,64.80
2018-05-08T02:27:59.389Z,65.10
2018-05-08T02:30:28.241Z,65.30
2018-05-08T02:32:56.283Z,64.90
2018-05-08T02:35:24.332Z,65.10
2018-05-08T02:37:53.904Z,65.70
2018-05-08T02:40:21.927Z,65.70
2018-05-08T02:42:49.964Z,65.60
2018-05-08T02:45:18.791Z,65.90
2018-05-08T02:47:46.869Z,65.50
2018-05-08T02:50:14.936Z,65.60
2018-05-08T02:52:42.974Z,65.90
2018-05-08T02:55:11.789Z,66.60
2018-05-08T02:57:39.841Z,66.30
2018-05-08T03:00:07.919Z,66.70
2018-05-08T03:02:36.001Z,67.00
2018-05-08T03:05:04.071Z,66.80
2018-05-08T03:07:32.129Z,66.90
2018-05-08T03:10:00.194Z,67.30
2018-05-08T03:12:28.243Z,67.50
2018-05-08T03:14:56.294Z,67.60
2018-05-08T03:17:24.336Z,67.70
2018-05-08T03:19:52.407Z,67.90
2018-05-08T03:22:20.534Z,68.20
2018-05-08T03:24:48.843Z,67.80
2018-05-08T03:27:16.842Z,68.00
2018-05-08T03:29:44.896Z,68.20
2018-05-08T03:32:12.929Z,68.40
2018-05-08T03:34:41.751Z,69.10
2018-05-08T03:37:09.807Z,68.90
2018-05-08T03:39:37.879Z,68.90
2018-05-08T03:42:05.947Z,69.20
2018-05-08T03:44:34.129Z,69.40
2018-05-08T03:47:02.190Z,69.30
2018-05-08T03:49:30.239Z,69.50
2018-05-08T03:51:58.262Z,69.50
2018-05-08T03:54:26.320Z,69.50
2018-05-08T03:56:54.390Z,69.50
2018-05-08T03:59:22.439Z,69.60
2018-05-08T04:05:08.679Z,69.90
2018-05-08T04:07:48.534Z,69.40
2018-05-08T04:10:16.559Z,69.50
2018-05-08T04:12:46.299Z,70.30
2018-05-08T04:15:14.342Z,70.10
2018-05-08T04:17:43.150Z,71.00
2018-05-08T04:20:11.226Z,70.30
2018-05-08T04:22:40.112Z,70.70
2018-05-08T04:25:08.153Z,70.10
2018-05-08T04:27:37.718Z,70.50
2018-05-08T04:30:05.785Z,70.20
2018-05-08T04:32:33.850Z,70.30
2018-05-08T04:35:01.894Z,70.20
2018-05-08T04:37:31.361Z,70.40
2018-05-08T04:39:59.421Z,70.00
2018-05-08T04:42:27.493Z,69.90
2018-05-08T04:44:55.532Z,69.90
2018-05-08T04:47:23.612Z,73.20
2018-05-08T04:49:51.779Z,70.00
2018-05-08T04:52:20.593Z,70.40
2018-05-08T04:54:49.538Z,69.90
2018-05-08T04:57:18.232Z,69.90
2018-05-08T04:59:46.255Z,69.70
2018-05-08T05:02:14.265Z,69.70
2018-05-08T05:04:43.092Z,70.10
2018-05-08T05:07:11.166Z,69.60
2018-05-08T05:09:39.240Z,69.20
2018-05-08T05:12:07.321Z,69.30
2018-05-08T05:14:35.407Z,69.30
2018-05-08T05:17:03.505Z,69.30
2018-05-08T05:19:31.546Z,69.10
2018-05-08T05:21:59.610Z,69.10
2018-05-08T05:24:27.774Z,68.90
2018-05-08T05:26:55.757Z,68.60
2018-05-08T05:29:23.797Z,69.00
2018-05-08T05:31:51.894Z,68.00
2018-05-08T05:34:19.938Z,68.20
2018-05-08T05:36:48.011Z,67.80
2018-05-08T05:39:16.046Z,66.70
2018-05-08T05:41:44.863Z,60.00
2018-05-08T05:44:12.939Z,60.10
2018-05-08T05:46:40.974Z,53.20
2018-05-08T05:49:09.805Z,43.20
2018-05-08T05:51:37.852Z,42.30
2018-05-08T05:54:05.938Z,39.90
2018-05-08T05:56:34.037Z,33.90
2018-05-08T05:59:02.183Z,33.20
2018-05-08T06:01:30.938Z,30.80
2018-05-08T06:03:59.810Z,29.50
2018-05-08T06:06:27.918Z,28.90
2018-05-08T06:08:55.953Z,27.70
2018-05-08T06:11:24.041Z,27.20
2018-05-08T06:13:52.099Z,26.10
2018-05-08T06:16:20.161Z,26.50
2018-05-08T06:18:48.245Z,24.60
2018-05-08T06:21:16.299Z,24.80
2018-05-08T06:23:44.386Z,24.00
2018-05-08T06:26:12.429Z,23.60
2018-05-08T06:28:40.501Z,23.30
2018-05-08T06:31:08.588Z,23.80
2018-05-08T06:33:38.182Z,24.90
2018-05-08T06:36:06.243Z,24.70
2018-05-08T06:38:34.384Z,25.10
2018-05-08T06:41:02.405Z,24.20
2018-05-08T06:43:30.488Z,23.30
2018-05-08T06:45:58.549Z,22.20
2018-05-08T06:48:26.601Z,21.60
2018-05-08T06:50:54.670Z,22.10
2018-05-08T06:53:22.761Z,23.10
2018-05-08T06:55:50.815Z,21.80
2018-05-08T06:58:19.767Z,22.20
2018-05-08T07:00:48.607Z,20.30
2018-05-08T07:03:16.670Z,20.20
2018-05-08T07:05:44.723Z,20.00
2018-05-08T07:08:12.790Z,19.90
2018-05-08T07:10:40.879Z,19.90
2018-05-08T07:13:08.929Z,20.10
2018-05-08T07:15:37.049Z,19.70
2018-05-08T07:18:05.072Z,19.40
2018-05-08T07:20:33.135Z,19.50
2018-05-08T07:23:01.214Z,19.20
2018-05-08T07:25:29.319Z,18.80
2018-05-08T07:27:57.356Z,18.10
2018-05-08T07:30:25.406Z,18.20
2018-05-08T07:32:54.249Z,18.80
2018-05-08T07:35:22.322Z,18.80
2018-05-08T07:37:50.383Z,18.20
2018-05-08T07:40:18.446Z,17.80
2018-05-08T07:42:46.528Z,17.60
2018-05-08T07:45:14.572Z,16.90
2018-05-08T07:47:42.659Z,16.40
2018-05-08T07:50:10.722Z,15.70
2018-05-08T07:52:38.786Z,16.10
2018-05-08T07:55:06.856Z,16.00
2018-05-08T07:57:35.669Z,16.30
2018-05-08T08:00:03.756Z,15.50
2018-05-08T08:02:31.842Z,15.90
2018-05-08T08:04:59.871Z,15.90
2018-05-08T08:07:27.971Z,15.60
2018-05-08T08:09:56.430Z,15.80
2018-05-08T08:12:24.646Z,15.40
2018-05-08T08:14:52.565Z,15.50
2018-05-08T08:17:20.642Z,15.40
2018-05-08T08:19:48.706Z,15.30
2018-05-08T08:22:16.781Z,15.70
2018-05-08T08:24:44.842Z,15.10
2018-05-08T08:27:13.601Z,15.10
2018-05-08T08:29:41.670Z,15.60
2018-05-08T08:32:09.755Z,15.30
2018-05-08T08:34:38.578Z,14.50
2018-05-08T08:37:06.642Z,14.50
2018-05-08T08:39:34.749Z,14.20
2018-05-08T08:42:02.819Z,14.20
2018-05-08T08:44:30.849Z,13.20
2018-05-08T08:46:58.970Z,12.20
2018-05-08T08:49:26.995Z,13.80
2018-05-08T08:51:55.041Z,13.60
2018-05-08T08:54:23.121Z,13.20
2018-05-08T08:56:51.931Z,13.10
2018-05-08T08:59:20.002Z,13.10
2018-05-08T09:01:48.037Z,13.00
2018-05-08T09:04:16.098Z,13.50
2018-05-08T09:06:44.141Z,13.10
2018-05-08T09:09:12.213Z,12.90
2018-05-08T09:11:40.293Z,13.10
2018-05-08T09:14:08.394Z,12.60
2018-05-08T09:16:36.465Z,12.80
2018-05-08T09:19:04.558Z,13.20
2018-05-08T09:21:32.602Z,13.60
2018-05-08T09:24:00.679Z,13.70
2018-05-08T09:26:28.746Z,14.40
2018-05-08T09:28:56.818Z,14.80
2018-05-08T09:31:25.261Z,13.10
2018-05-08T09:33:54.142Z,13.50
2018-05-08T09:36:22.948Z,11.90
2018-05-08T09:38:51.006Z,10.90
2018-05-08T09:41:19.078Z,11.50
2018-05-08T09:43:47.143Z,11.30
2018-05-08T09:46:15.229Z,11.20
2018-05-08T09:48:43.308Z,10.80
2018-05-08T09:51:11.378Z,10.80
2018-05-08T09:53:39.448Z,10.40
2018-05-08T09:56:07.497Z,11.30
2018-05-08T09:58:35.577Z,11.50
2018-05-08T10:01:03.727Z,12.70
2018-05-08T10:03:31.733Z,13.70
2018-05-08T10:05:59.778Z,13.60
2018-05-08T10:08:27.869Z,14.00
2018-05-08T10:10:56.657Z,13.30
2018-05-08T10:13:24.710Z,13.30
2018-05-08T10:15:52.793Z,12.80
2018-05-08T10:18:20.832Z,13.00
2018-05-08T10:20:49.685Z,13.70
2018-05-08T10:23:17.759Z,13.20
2018-05-08T10:25:45.797Z,13.60
2018-05-08T10:28:13.859Z,13.60
2018-05-08T10:30:43.248Z,13.90
2018-05-08T10:33:11.296Z,14.30
2018-05-08T10:35:40.108Z,15.50
2018-05-08T10:38:08.178Z,15.80
2018-05-08T10:40:36.226Z,15.70
2018-05-08T10:43:05.791Z,16.10
2018-05-08T10:45:33.878Z,17.00
2018-05-08T10:48:01.953Z,19.60
2018-05-08T10:50:30.714Z,18.30
2018-05-08T10:52:59.524Z,18.20
2018-05-08T10:55:27.591Z,18.50
2018-05-08T10:57:56.426Z,18.30
2018-05-08T11:00:25.229Z,18.80
2018-05-08T11:02:53.341Z,18.80
2018-05-08T11:05:21.399Z,18.70
2018-05-08T11:07:49.468Z,18.10
2018-05-08T11:10:17.513Z,17.80
2018-05-08T11:12:45.587Z,17.90
2018-05-08T11:15:13.639Z,16.70
2018-05-08T11:20:11.042Z,17.40
2018-05-08T11:22:39.118Z,17.90
2018-05-08T11:25:07.211Z,18.40
2018-05-08T11:27:35.387Z,18.70
2018-05-08T11:30:03.430Z,19.30
2018-05-08T11:32:31.579Z,19.50
2018-05-08T11:34:59.611Z,19.00
2018-05-08T11:37:27.667Z,18.80
2018-05-08T11:39:56.633Z,18.00
2018-05-08T11:42:24.708Z,18.30
2018-05-08T11:44:52.771Z,18.80
2018-05-08T11:47:20.857Z,19.20
2018-05-08T11:49:48.920Z,20.10
2018-05-08T11:52:16.990Z,20.70
2018-05-08T11:54:45.050Z,21.10
2018-05-08T11:57:13.114Z,21.30
2018-05-08T11:59:41.186Z,21.40
2018-05-08T12:02:09.254Z,21.20
2018-05-08T12:04:37.326Z,20.70
2018-05-08T12:07:05.381Z,20.40
2018-05-08T12:09:34.216Z,21.40
2018-05-08T12:12:02.286Z,21.90
2018-05-08T12:14:30.353Z,22.50
2018-05-08T12:16:58.444Z,22.50
2018-05-08T12:19:27.283Z,22.50
2018-05-08T12:21:56.289Z,22.70
2018-05-08T12:24:24.176Z,22.80
2018-05-08T12:26:52.229Z,23.10
2018-05-08T12:29:20.282Z,23.30
2018-05-08T12:31:49.091Z,24.10
2018-05-08T12:34:17.184Z,24.10
2018-05-08T12:36:45.222Z,23.70
2018-05-08T12:39:13.273Z,23.40
2018-05-08T12:41:41.752Z,23.10
2018-05-08T12:44:09.849Z,23.30
2018-05-08T12:46:37.921Z,23.80
2018-05-08T12:49:06.726Z,24.70
2018-05-08T12:51:34.778Z,24.70
2018-05-08T12:54:02.827Z,24.40
2018-05-08T12:56:30.974Z,24.20
2018-05-08T12:58:59.820Z,24.30
2018-05-08T13:01:27.770Z,23.70
2018-05-08T13:03:56.600Z,23.80
2018-05-08T13:06:24.649Z,23.80
2018-05-08T13:08:52.723Z,23.80
2018-05-08T13:11:20.787Z,24.20
2018-05-08T13:13:48.866Z,24.10
2018-05-08T13:16:16.916Z,24.30
2018-05-08T13:18:45.715Z,24.20
2018-05-08T13:21:13.785Z,24.00
2018-05-08T13:23:42.618Z,24.60
2018-05-08T13:26:11.369Z,24.40
2018-05-08T13:28:39.431Z,24.00
2018-05-08T13:31:07.570Z,24.10
2018-05-08T13:33:35.535Z,25.50
2018-05-08T13:36:03.589Z,24.50
2018-05-08T13:38:31.659Z,24.50
2018-05-08T13:40:59.690Z,25.30
2018-05-08T13:43:27.742Z,25.00
2018-05-08T13:45:55.813Z,25.40
2018-05-08T13:48:23.862Z,26.10
2018-05-08T13:50:51.974Z,25.90
2018-05-08T13:53:20.761Z,26.20
2018-05-08T13:55:49.627Z,25.70
2018-05-08T13:58:17.714Z,25.40
2018-05-08T14:00:46.514Z,26.40
2018-05-08T14:03:14.586Z,25.90
2018-05-08T14:05:42.611Z,26.10
2018-05-08T14:08:10.976Z,25.50
2018-05-08T14:10:39.010Z,25.00
2018-05-08T14:13:07.869Z,25.00
2018-05-08T14:15:35.845Z,25.00
2018-05-08T14:18:04.681Z,25.50
2018-05-08T14:20:32.769Z,27.00
2018-05-08T14:23:00.904Z,25.60
2018-05-08T14:25:28.937Z,26.10
2018-05-08T14:27:56.998Z,27.00
2018-05-08T14:30:25.069Z,25.90
2018-05-08T14:32:54.721Z,25.70
2018-05-08T14:35:22.774Z,25.70
2018-05-08T14:37:50.808Z,25.60
2018-05-08T14:40:18.875Z,25.80
2018-05-08T14:42:46.962Z,25.60
2018-05-08T14:45:15.863Z,25.80
2018-05-08T14:47:43.937Z,26.40
2018-05-08T14:50:12.006Z,26.10
2018-05-08T14:52:40.079Z,26.70
2018-05-08T14:55:09.349Z,26.40
2018-05-08T14:57:37.416Z,26.80
2018-05-08T15:00:05.492Z,26.80
2018-05-08T15:02:33.970Z,26.70
2018-05-08T15:05:02.018Z,27.10
2018-05-08T15:07:30.051Z,27.40
2018-05-08T15:09:58.130Z,26.30
2018-05-08T15:12:27.312Z,26.50
2018-05-08T15:14:55.373Z,26.80
2018-05-08T15:17:23.426Z,26.60
2018-05-08T15:19:51.501Z,27.10
2018-05-08T15:22:19.568Z,27.00
2018-05-08T15:24:47.639Z,26.90
2018-05-08T15:27:15.726Z,27.20
2018-05-08T15:29:43.786Z,27.50
2018-05-08T15:32:11.917Z,26.90
2018-05-08T15:34:40.050Z,27.90
2018-05-08T15:37:08.039Z,28.00
2018-05-08T15:39:36.086Z,28.10
2018-05-08T15:42:04.135Z,28.10
2018-05-08T15:44:32.181Z,28.10
2018-05-08T15:47:00.237Z,28.80
2018-05-08T15:49:29.060Z,28.10
2018-05-08T15:51:57.142Z,27.70
2018-05-08T15:54:25.205Z,27.70
2018-05-08T15:56:55.239Z,28.20
2018-05-08T15:59:24.047Z,28.20
2018-05-08T16:01:52.119Z,28.30
2018-05-08T16:04:20.165Z,28.10
2018-05-08T16:06:48.298Z,27.80
2018-05-08T16:09:16.449Z,28.10
2018-05-08T16:11:44.510Z,28.20
2018-05-08T16:14:12.601Z,28.10
2018-05-08T16:16:41.458Z,29.20
2018-05-08T16:19:09.504Z,28.40
2018-05-08T16:21:38.039Z,28.70
2018-05-08T16:24:06.870Z,29.20
2018-05-08T16:26:35.020Z,28.80
2018-05-08T16:29:03.050Z,29.00
2018-05-08T16:31:31.095Z,29.00
2018-05-08T16:33:59.183Z,29.40
2018-05-08T16:36:27.218Z,29.30
2018-05-08T16:38:55.266Z,29.40
2018-05-08T16:41:24.083Z,30.00
2018-05-08T16:43:52.730Z,29.50
2018-05-08T16:46:21.556Z,29.90
2018-05-08T16:48:49.605Z,29.50
2018-05-08T16:51:17.663Z,29.60
2018-05-08T16:53:46.502Z,30.10
2018-05-08T16:56:14.577Z,29.90
2018-05-08T16:58:42.646Z,30.00
2018-05-08T17:01:10.807Z,29.90
2018-05-08T17:03:39.613Z,30.20
2018-05-08T17:06:07.681Z,29.90
2018-05-08T17:08:35.746Z,29.90
2018-05-08T17:11:03.807Z,30.10
2018-05-08T17:13:31.883Z,30.20
2018-05-08T17:16:00.018Z,30.30
2018-05-08T17:18:28.852Z,31.10
2018-05-08T17:20:56.898Z,30.60
2018-05-08T17:23:24.973Z,30.90
2018-05-08T17:25:53.043Z,28.90
2018-05-08T17:28:21.081Z,30.80
2018-05-08T17:30:49.953Z,31.80
2018-05-08T17:33:18.023Z,31.40
2018-05-08T17:35:46.045Z,31.40
2018-05-08T17:38:14.113Z,31.70
2018-05-08T17:40:42.143Z,31.60
2018-05-08T17:43:10.231Z,32.30
2018-05-08T17:45:39.039Z,32.60
2018-05-08T17:48:07.876Z,32.80
2018-05-08T17:50:35.908Z,32.80
2018-05-08T17:53:03.983Z,32.00
2018-05-08T17:55:32.666Z,32.70
2018-05-08T17:58:00.732Z,33.30
2018-05-08T18:00:28.802Z,32.80
2018-05-08T18:02:56.870Z,33.60
2018-05-08T18:05:25.763Z,33.70
2018-05-08T18:07:53.763Z,33.50
2018-05-08T18:10:21.815Z,34.00
2018-05-08T18:12:49.961Z,34.00
2018-05-08T18:15:17.958Z,34.30
2018-05-08T18:17:46.126Z,34.40
2018-05-08T18:20:14.083Z,34.40
2018-05-08T18:22:42.113Z,34.90
2018-05-08T18:25:10.203Z,34.80
2018-05-08T18:27:38.254Z,35.00
2018-05-08T18:30:06.304Z,35.30
2018-05-08T18:32:34.399Z,35.30
2018-05-08T18:35:02.465Z,35.50
2018-05-08T18:37:30.513Z,35.70
2018-05-08T18:39:58.596Z,35.80
2018-05-08T18:42:26.631Z,35.90
2018-05-08T18:44:54.698Z,36.10
2018-05-08T18:47:22.764Z,36.20
2018-05-08T18:49:51.663Z,36.40
2018-05-08T18:52:19.691Z,36.40
2018-05-08T18:54:47.788Z,36.60
2018-05-08T18:57:15.844Z,36.90
2018-05-08T18:59:43.880Z,37.10
2018-05-08T19:02:11.949Z,37.80
2018-05-08T19:04:40.015Z,37.30
2018-05-08T19:07:08.545Z,37.50
2018-05-08T19:09:36.570Z,37.50
2018-05-08T19:12:04.642Z,37.40
2018-05-08T19:14:32.686Z,37.50
2018-05-08T19:17:01.498Z,37.80
2018-05-08T19:19:35.301Z,37.40
2018-05-08T19:22:03.729Z,37.40
2018-05-08T19:24:33.723Z,38.10
2018-05-08T19:27:01.793Z,38.20
2018-05-08T19:29:35.498Z,38.40
2018-05-08T19:32:03.714Z,38.40
2018-05-08T19:34:37.333Z,38.10
2018-05-08T19:37:11.020Z,38.10
2018-05-08T19:39:39.878Z,38.90
2018-05-08T19:42:07.931Z,38.80
2018-05-08T19:44:36.036Z,39.00
2018-05-08T19:47:04.063Z,39.20
2018-05-08T19:49:32.129Z,39.30
2018-05-08T19:52:00.232Z,39.40
2018-05-08T19:54:28.271Z,39.80
2018-05-08T19:56:56.347Z,39.70
2018-05-08T19:59:24.403Z,40.00
2018-05-08T20:01:52.478Z,40.10
2018-05-08T20:04:21.090Z,40.30
2018-05-08T20:06:53.534Z,40.30
2018-05-08T20:09:23.031Z,40.40
2018-05-08T20:11:51.151Z,40.60
2018-05-08T20:14:19.258Z,40.60
2018-05-08T20:16:48.058Z,41.10
2018-05-08T20:19:16.890Z,41.00
2018-05-08T20:21:45.047Z,41.00
2018-05-08T20:24:13.109Z,41.10
2018-05-08T20:26:41.790Z,41.40
2018-05-08T20:29:10.633Z,41.50
2018-05-08T20:31:38.705Z,41.50
2018-05-08T20:34:06.761Z,41.90
2018-05-08T20:36:34.797Z,42.00
2018-05-08T20:39:04.941Z,41.90
2018-05-08T20:41:33.209Z,42.00
2018-05-08T20:44:01.299Z,42.00
2018-05-08T20:46:29.454Z,42.70
2018-05-08T20:48:59.324Z,42.70
2018-05-08T20:51:27.609Z,42.80
2018-05-08T20:53:55.796Z,43.30
2018-05-08T20:56:24.672Z,43.20
2018-05-08T20:58:53.549Z,43.30
2018-05-08T21:01:22.593Z,44.10
2018-05-08T21:03:50.599Z,43.40
2018-05-08T21:06:18.686Z,43.30
2018-05-08T21:08:46.729Z,43.00
2018-05-08T21:11:15.055Z,43.10
2018-05-08T21:13:43.846Z,43.40
2018-05-08T21:16:11.935Z,43.40
2018-05-08T21:18:40.000Z,43.80
2018-05-08T21:21:08.050Z,43.90
2018-05-08T21:23:36.862Z,44.00
2018-05-08T21:26:04.912Z,44.00
2018-05-08T21:28:39.333Z,44.30
2018-05-08T21:31:14.162Z,44.50
2018-05-08T21:33:42.985Z,44.60
2018-05-08T21:36:11.041Z,44.60
2018-05-08T21:38:39.104Z,44.70
2018-05-08T21:41:07.163Z,45.00
2018-05-08T21:43:35.974Z,45.10
2018-05-08T21:46:04.037Z,45.10
2018-05-08T21:48:32.175Z,45.00
2018-05-08T21:51:00.253Z,45.00
2018-05-08T21:53:29.070Z,45.70
2018-05-08T21:55:57.144Z,45.70
2018-05-08T21:58:26.342Z,46.40
2018-05-08T22:00:54.413Z,46.20
2018-05-08T22:03:22.475Z,46.20
2018-05-08T22:05:50.549Z,46.30
2018-05-08T22:08:18.621Z,46.80
2018-05-08T22:10:46.694Z,47.20
2018-05-08T22:13:15.488Z,47.90
2018-05-08T22:15:43.545Z,47.70
2018-05-08T22:18:12.346Z,47.80
2018-05-08T22:20:40.416Z,47.80
2018-05-08T22:23:08.489Z,47.90
2018-05-08T22:25:37.341Z,48.50
2018-05-08T22:28:05.380Z,48.50
2018-05-08T22:30:33.485Z,48.70
2018-05-08T22:33:01.541Z,48.60
2018-05-08T22:35:29.593Z,47.70
2018-05-08T22:37:57.724Z,48.20
2018-05-08T22:40:25.790Z,48.40
2018-05-08T22:42:53.877Z,48.40
2018-05-08T22:45:21.929Z,48.60
2018-05-08T22:47:50.783Z,48.80
2018-05-08T22:50:18.857Z,48.40
2018-05-08T22:52:46.944Z,48.40
2018-05-08T22:55:15.001Z,49.10
2018-05-08T22:57:43.123Z,48.70
2018-05-08T23:00:11.197Z,49.10
2018-05-08T23:02:40.022Z,49.10
2018-05-08T23:05:08.047Z,49.10
2018-05-08T23:07:36.130Z,49.60
2018-05-08T23:10:04.180Z,49.40
2018-05-08T23:12:32.238Z,49.80
2018-05-08T23:15:00.311Z,50.30
2018-05-08T23:17:28.348Z,50.00
2018-05-08T23:19:56.394Z,50.30
2018-05-08T23:22:24.467Z,50.00
2018-05-08T23:24:52.572Z,50.70
2018-05-08T23:27:20.564Z,50.80
2018-05-08T23:29:48.634Z,51.10
2018-05-08T23:32:16.676Z,51.20
2018-05-08T23:34:44.732Z,51.70
2018-05-08T23:37:13.194Z,51.50
2018-05-08T23:39:41.228Z,51.70
2018-05-08T23:42:09.314Z,51.60
2018-05-08T23:44:37.776Z,51.70
2018-05-08T23:47:05.838Z,52.20
2018-05-08T23:49:33.874Z,52.30
2018-05-08T23:52:01.962Z,52.00
2018-05-08T23:54:31.839Z,52.20
2018-05-08T23:59:29.251Z,52.60
